Time;durP1;ratioP1;P1;durP2;ratioP2;P2;SDS_P1;SDS_P2;PMS_P1;PMS_P2;Temp;Humidity;BMP_temperature;BMP_pressure;BME280_temperature;BME280_humidity;BME280_pressure;Samples;Min_cycle;Max_cycle;Signal;HPM_P1;HPM_P2
2022/04/04 00:01:29;;;;;;;4.22;3.47;;;14.00;60.80;;;;;;5103780;28;20541;-66
2022/04/04 00:03:55;;;;;;;4.97;4.10;;;13.90;60.80;;;;;;5103697;28;20031;-66
2022/04/04 00:06:21;;;;;;;4.75;3.65;;;13.90;61.40;;;;;;5103557;28;20043;-67
2022/04/04 00:08:46;;;;;;;3.55;3.17;;;13.90;60.80;;;;;;5103601;28;20047;-66
2022/04/04 00:11:12;;;;;;;4.50;3.88;;;13.90;60.80;;;;;;5103558;28;20030;-67
2022/04/04 00:13:38;;;;;;;4.55;3.40;;;13.90;60.80;;;;;;5103468;28;20079;-67
2022/04/04 00:16:04;;;;;;;3.63;3.00;;;13.90;60.90;;;;;;5103337;28;20087;-67
2022/04/04 00:18:29;;;;;;;4.13;3.70;;;13.90;60.90;;;;;;5103468;28;20255;-66
2022/04/04 00:20:55;;;;;;;3.67;3.35;;;13.90;60.90;;;;;;5103360;28;20028;-67
2022/04/04 00:23:21;;;;;;;4.15;3.75;;;14.00;60.90;;;;;;5103207;28;20031;-67
2022/04/04 00:25:48;;;;;;;4.93;3.85;;;13.90;60.80;;;;;;5103255;28;20031;-68
2022/04/04 00:28:14;;;;;;;3.72;3.42;;;13.90;60.80;;;;;;5103249;28;20083;-66
2022/04/04 00:30:41;;;;;;;3.55;3.10;;;13.90;60.90;;;;;;5101986;28;20028;-66
2022/04/04 00:33:07;;;;;;;4.80;3.70;;;13.90;60.90;;;;;;5103109;28;20027;-66
2022/04/04 00:35:34;;;;;;;4.53;3.85;;;13.90;60.80;;;;;;5103017;28;20016;-68
2022/04/04 00:38:01;;;;;;;3.72;3.33;;;13.90;60.90;;;;;;5103139;28;20079;-66
2022/04/04 00:40:27;;;;;;;3.47;3.05;;;13.80;60.80;;;;;;5101812;28;20342;-67
2022/04/04 00:42:53;;;;;;;3.45;3.15;;;13.80;60.80;;;;;;5102912;28;20024;-66
2022/04/04 00:45:19;;;;;;;4.10;3.17;;;13.80;60.80;;;;;;5102868;28;20047;-67
2022/04/04 00:47:45;;;;;;;3.88;3.47;;;13.80;60.90;;;;;;5102804;28;20083;-66
2022/04/04 00:50:11;;;;;;;3.40;3.10;;;13.80;60.90;;;;;;5102807;28;20204;-66
2022/04/04 00:52:38;;;;;;;4.68;3.47;;;13.80;60.90;;;;;;5102704;28;20027;-66
2022/04/04 00:55:07;;;;;;;3.88;3.30;;;13.80;60.80;;;;;;5102751;28;20027;-66
2022/04/04 00:57:32;;;;;;;;;;;13.80;60.90;;;;;;5103017;28;20011;-66
2022/04/04 00:59:58;;;;;;;4.30;3.53;;;13.80;60.90;;;;;;5102762;28;20128;-66
2022/04/04 01:02:24;;;;;;;4.50;3.22;;;13.80;60.90;;;;;;5101844;28;20083;-66
2022/04/04 01:04:50;;;;;;;4.10;3.70;;;13.80;60.90;;;;;;5102554;28;20032;-67
2022/04/04 01:07:15;;;;;;;5.22;3.72;;;13.80;60.90;;;;;;5102498;28;20319;-67
2022/04/04 01:09:41;;;;;;;4.45;3.17;;;13.80;60.90;;;;;;5102455;28;20027;-66
2022/04/04 01:12:08;;;;;;;3.90;3.22;;;13.80;60.90;;;;;;5102389;28;20039;-67
2022/04/04 01:14:42;;;;;;;4.25;3.35;;;13.80;60.90;;;;;;5102316;28;20015;-66
2022/04/04 01:17:09;;;;;;;4.05;3.65;;;13.80;60.80;;;;;;5102581;28;20040;-66
2022/04/04 01:19:35;;;;;;;3.80;3.40;;;13.80;61.00;;;;;;5102298;28;20053;-67
2022/04/04 01:22:05;;;;;;;3.88;3.42;;;13.80;60.90;;;;;;5102290;28;20027;-68
2022/04/04 01:24:31;;;;;;;4.10;3.38;;;13.70;60.80;;;;;;5102496;28;20458;-67
2022/04/04 01:26:57;;;;;;;4.72;3.25;;;13.70;60.80;;;;;;5102114;28;20036;-67
2022/04/04 01:29:22;;;;;;;3.60;3.30;;;13.70;60.80;;;;;;5102079;28;20027;-66
2022/04/04 01:31:50;;;;;;;4.15;3.28;;;13.70;60.90;;;;;;5102341;28;20299;-66
2022/04/04 01:34:18;;;;;;;3.95;3.40;;;13.70;60.80;;;;;;5101952;28;20028;-66
2022/04/04 01:36:44;;;;;;;4.10;3.58;;;13.70;61.00;;;;;;5101986;28;20020;-66
2022/04/04 01:39:10;;;;;;;4.28;3.67;;;13.70;60.90;;;;;;5101958;28;20028;-66
2022/04/04 01:41:36;;;;;;;4.10;3.55;;;13.70;60.90;;;;;;5101856;28;20362;-67
2022/04/04 01:44:02;;;;;;;3.95;3.25;;;13.70;61.00;;;;;;5101642;28;20052;-67
2022/04/04 01:46:28;;;;;;;4.10;3.70;;;13.70;60.90;;;;;;5101848;28;20085;-66
2022/04/04 01:48:56;;;;;;;3.60;3.30;;;13.60;61.00;;;;;;5101638;28;20354;-66
2022/04/04 01:51:22;;;;;;;4.20;3.10;;;13.70;60.90;;;;;;5101759;28;20054;-66
2022/04/04 01:53:49;;;;;;;3.05;2.63;;;13.60;60.90;;;;;;5101631;28;20308;-66
2022/04/04 01:56:15;;;;;;;4.03;3.47;;;13.70;60.90;;;;;;5101628;28;20034;-67
2022/04/04 01:58:41;;;;;;;4.82;3.75;;;13.70;61.00;;;;;;5101600;28;20093;-67
2022/04/04 02:01:15;;;;;;;4.43;3.20;;;13.60;60.90;;;;;;5101620;28;20020;-66
2022/04/04 02:03:44;;;;;;;4.55;3.20;;;13.60;61.00;;;;;;5101684;28;20028;-67
2022/04/04 02:06:09;;;;;;;;;;;13.60;60.90;;;;;;5101969;28;20183;-66
2022/04/04 02:08:35;;;;;;;4.38;3.67;;;13.60;60.90;;;;;;5101398;28;19915;-68
2022/04/04 02:11:03;;;;;;;5.10;3.78;;;13.60;60.90;;;;;;5101297;28;20121;-67
2022/04/04 02:13:29;;;;;;;3.42;3.13;;;13.60;60.90;;;;;;5100057;28;20028;-67
2022/04/04 02:15:58;;;;;;;4.45;3.22;;;13.60;60.90;;;;;;5101272;28;20126;-67
2022/04/04 02:18:24;;;;;;;;;;;13.60;60.90;;;;;;5101785;28;20019;-66
2022/04/04 02:20:50;;;;;;;3.65;3.15;;;13.60;61.00;;;;;;5101250;28;19908;-68
2022/04/04 02:23:20;;;;;;;4.20;3.50;;;13.60;61.00;;;;;;5101118;28;20367;-67
2022/04/04 02:25:46;;;;;;;4.43;3.65;;;13.60;61.70;;;;;;5101095;28;20085;-68
2022/04/04 02:28:13;;;;;;;4.28;3.38;;;13.50;61.00;;;;;;5100961;28;20085;-68
2022/04/04 02:30:42;;;;;;;4.40;3.92;;;13.50;61.00;;;;;;5101041;28;20312;-67
2022/04/04 02:33:08;;;;;;;4.38;3.42;;;13.60;61.00;;;;;;5100892;28;20365;-67
2022/04/04 02:35:35;;;;;;;3.88;3.10;;;13.50;61.00;;;;;;5100857;28;20019;-66
2022/04/04 02:38:02;;;;;;;3.55;2.95;;;13.50;60.90;;;;;;5100844;28;20031;-67
2022/04/04 02:40:28;;;;;;;4.13;3.50;;;13.50;60.90;;;;;;5100868;28;20012;-66
2022/04/04 02:42:54;;;;;;;3.78;3.22;;;13.60;61.00;;;;;;5100694;28;20374;-66
2022/04/04 02:45:21;;;;;;;3.67;3.05;;;13.50;60.90;;;;;;5100608;28;20077;-68
2022/04/04 02:47:47;;;;;;;3.78;3.30;;;13.50;61.00;;;;;;5100774;28;20028;-66
2022/04/04 02:50:13;;;;;;;4.65;3.03;;;13.50;61.00;;;;;;5100520;28;20027;-67
2022/04/04 02:52:39;;;;;;;4.20;3.47;;;13.50;61.00;;;;;;5100546;28;20077;-66
2022/04/04 02:57:51;;;;;;;3.70;3.30;;;13.50;61.00;;;;;;5100514;28;20023;-67
2022/04/04 03:00:19;;;;;;;3.70;3.20;;;13.50;61.00;;;;;;5100516;28;20223;-67
2022/04/04 03:02:48;;;;;;;3.80;3.40;;;13.50;61.00;;;;;;5100387;28;20027;-66
2022/04/04 03:05:14;;;;;;;4.32;3.63;;;13.40;61.00;;;;;;5100309;28;20024;-66
2022/04/04 03:07:41;;;;;;;3.97;3.45;;;13.50;61.00;;;;;;5099087;28;20227;-67
2022/04/04 03:10:07;;;;;;;3.63;3.25;;;13.50;61.00;;;;;;5100328;28;20028;-67
2022/04/04 03:12:33;;;;;;;3.60;3.28;;;13.40;61.00;;;;;;5100128;28;20023;-67
2022/04/04 03:14:59;;;;;;;4.18;3.03;;;13.40;61.00;;;;;;5100272;28;20012;-66
2022/04/04 03:17:28;;;;;;;3.90;3.47;;;13.50;61.00;;;;;;5100122;28;20319;-67
2022/04/04 03:19:53;;;;;;;4.28;3.75;;;13.40;61.00;;;;;;5100079;28;20075;-66
2022/04/04 03:22:22;;;;;;;3.50;3.17;;;13.40;61.00;;;;;;5100123;28;20335;-66
2022/04/04 03:24:48;;;;;;;4.07;3.40;;;13.40;61.00;;;;;;5099784;28;20024;-67
2022/04/04 03:27:14;;;;;;;3.53;3.22;;;13.40;61.00;;;;;;5099979;28;20103;-66
2022/04/04 03:29:40;;;;;;;4.10;3.28;;;13.40;61.70;;;;;;5098817;28;20022;-66
2022/04/04 03:32:07;;;;;;;3.90;3.15;;;13.40;61.00;;;;;;5099975;28;20420;-66
2022/04/04 03:34:33;;;;;;;3.55;3.10;;;13.40;61.00;;;;;;5099425;28;20339;-68
2022/04/04 03:36:59;;;;;;;3.72;3.20;;;13.40;61.00;;;;;;5099991;28;20241;-66
2022/04/04 03:39:25;;;;;;;4.25;3.08;;;13.30;61.00;;;;;;5099912;28;20038;-66
2022/04/04 03:41:53;;;;;;;4.25;3.60;;;13.30;61.00;;;;;;5099795;28;20047;-66
2022/04/04 03:44:18;;;;;;;3.28;2.95;;;13.30;61.00;;;;;;5099709;28;20055;-66
2022/04/04 03:46:46;;;;;;;3.85;3.13;;;13.30;61.00;;;;;;5099995;28;20142;-66
2022/04/04 03:49:12;;;;;;;3.70;3.10;;;13.40;61.10;;;;;;5099788;28;20046;-67
2022/04/04 03:51:37;;;;;;;3.35;3.05;;;13.30;60.90;;;;;;5099884;28;20023;-66
2022/04/04 03:54:03;;;;;;;3.88;3.20;;;13.40;61.00;;;;;;5099606;28;20184;-68
2022/04/04 03:56:29;;;;;;;3.67;3.28;;;13.30;61.00;;;;;;5099694;28;20185;-67
2022/04/04 03:58:55;;;;;;;3.83;3.10;;;13.30;61.00;;;;;;5099616;28;20047;-66
2022/04/04 04:01:22;;;;;;;3.63;3.33;;;13.30;60.90;;;;;;5099749;28;20028;-67
2022/04/04 04:03:48;;;;;;;3.63;3.17;;;13.30;60.90;;;;;;5099705;28;20047;-66
2022/04/04 04:06:15;;;;;;;3.90;3.50;;;13.30;61.00;;;;;;5099583;28;20024;-66
2022/04/04 04:08:44;;;;;;;4.70;3.20;;;13.30;61.00;;;;;;5099537;28;20097;-67
2022/04/04 04:11:10;;;;;;;3.38;2.88;;;13.30;61.00;;;;;;5099669;28;20023;-66
2022/04/04 04:13:37;;;;;;;4.13;3.20;;;13.30;61.00;;;;;;5099560;28;20110;-67
2022/04/04 04:16:04;;;;;;;5.70;3.63;;;13.30;61.00;;;;;;5099484;28;20027;-67
2022/04/04 04:18:30;;;;;;;4.25;3.38;;;13.30;61.00;;;;;;5099574;28;20094;-67
2022/04/04 04:20:57;;;;;;;3.90;3.20;;;13.20;61.00;;;;;;5099478;28;20031;-67
2022/04/04 04:23:22;;;;;;;3.97;3.20;;;13.20;61.60;;;;;;5099353;28;20066;-67
2022/04/04 04:25:49;;;;;;;4.03;3.13;;;13.20;61.00;;;;;;5099488;28;20028;-66
2022/04/04 04:28:14;;;;;;;3.60;3.30;;;13.20;60.90;;;;;;5099293;28;20039;-67
2022/04/04 04:30:41;;;;;;;4.57;3.72;;;13.20;60.90;;;;;;5099389;28;20028;-65
2022/04/04 04:33:07;;;;;;;4.82;3.33;;;13.30;61.00;;;;;;5099295;28;20028;-66
2022/04/04 04:35:33;;;;;;;3.75;3.10;;;13.20;61.00;;;;;;5098034;28;20024;-67
2022/04/04 04:38:00;;;;;;;4.03;3.17;;;13.20;61.00;;;;;;5102965;28;20113;-67
2022/04/04 04:40:27;;;;;;;3.63;2.95;;;13.20;61.00;;;;;;5103039;28;20016;-67
2022/04/04 04:42:54;;;;;;;4.07;3.22;;;13.20;61.00;;;;;;5102865;28;20034;-67
2022/04/04 04:45:20;;;;;;;4.72;3.53;;;13.20;61.10;;;;;;5102869;28;20048;-66
2022/04/04 04:47:47;;;;;;;4.30;3.65;;;13.20;61.00;;;;;;5102885;28;20024;-67
2022/04/04 04:50:15;;;;;;;3.92;3.25;;;13.20;61.00;;;;;;5102826;28;20065;-66
2022/04/04 04:52:42;;;;;;;4.78;3.42;;;13.20;61.00;;;;;;5102746;28;20066;-67
2022/04/04 04:55:09;;;;;;;4.60;3.60;;;13.20;61.00;;;;;;5102815;28;20016;-66
2022/04/04 04:57:35;;;;;;;4.38;3.35;;;13.20;60.90;;;;;;5102691;28;20075;-67
2022/04/04 05:00:03;;;;;;;4.65;3.90;;;13.20;61.00;;;;;;5102688;28;20077;-66
2022/04/04 05:02:29;;;;;;;3.33;2.97;;;13.20;60.90;;;;;;5102680;28;20075;-65
2022/04/04 05:04:55;;;;;;;3.55;3.00;;;13.10;61.50;;;;;;5102590;28;20039;-67
2022/04/04 05:07:20;;;;;;;3.60;3.20;;;13.10;60.90;;;;;;5102498;28;20020;-67
2022/04/04 05:09:46;;;;;;;4.00;3.47;;;13.10;60.80;;;;;;5102477;28;20046;-67
2022/04/04 05:12:12;;;;;;;4.47;3.40;;;13.20;61.00;;;;;;5102411;28;20012;-66
2022/04/04 05:14:40;;;;;;;4.10;3.70;;;13.20;60.90;;;;;;5102313;28;20027;-66
2022/04/04 05:17:05;;;;;;;2.90;2.55;;;13.10;60.80;;;;;;5102287;28;20031;-67
2022/04/04 05:19:31;;;;;;;4.10;3.28;;;13.20;60.90;;;;;;5102279;28;20028;-67
2022/04/04 05:21:57;;;;;;;3.92;3.22;;;13.20;60.90;;;;;;5102229;28;20075;-66
2022/04/04 05:24:23;;;;;;;3.70;2.90;;;13.20;60.80;;;;;;5102160;28;20031;-65
2022/04/04 05:26:49;;;;;;;3.47;3.03;;;13.10;60.90;;;;;;5102096;28;20020;-67
2022/04/04 05:29:17;;;;;;;4.05;3.42;;;13.10;60.90;;;;;;5102074;28;20080;-66
2022/04/04 05:31:47;;;;;;;3.28;2.97;;;13.10;60.80;;;;;;5101994;28;20020;-66
2022/04/04 05:34:13;;;;;;;4.80;3.58;;;13.10;60.90;;;;;;5102119;28;20083;-66
2022/04/04 05:36:39;;;;;;;3.90;3.08;;;13.10;60.80;;;;;;5101969;28;20327;-68
2022/04/04 05:39:06;;;;;;;3.58;3.20;;;13.20;60.80;;;;;;5102236;28;20228;-67
2022/04/04 05:41:34;;;;;;;3.10;2.85;;;13.10;60.80;;;;;;5101883;28;20050;-67
2022/04/04 05:43:59;;;;;;;4.88;3.55;;;13.10;60.80;;;;;;5101663;28;20158;-66
2022/04/04 05:46:25;;;;;;;4.47;3.13;;;13.10;60.80;;;;;;5101729;28;20035;-67
2022/04/04 05:48:52;;;;;;;4.00;3.40;;;13.10;60.80;;;;;;5101435;28;20027;-67
2022/04/04 05:51:18;;;;;;;3.95;3.08;;;13.10;60.70;;;;;;5101760;28;20065;-66
2022/04/04 05:53:44;;;;;;;4.13;3.38;;;13.20;60.80;;;;;;5101533;28;20039;-66
2022/04/04 05:56:10;;;;;;;4.15;3.42;;;13.10;60.70;;;;;;5101628;28;20134;-67
2022/04/04 05:58:36;;;;;;;4.03;3.20;;;13.10;60.70;;;;;;5101535;28;20269;-66
2022/04/04 06:01:03;;;;;;;3.10;2.72;;;13.20;60.70;;;;;;5101444;28;20137;-67
2022/04/04 06:03:30;;;;;;;3.40;3.10;;;13.20;60.60;;;;;;5101518;28;20220;-66
2022/04/04 06:05:57;;;;;;;3.83;3.10;;;13.10;60.60;;;;;;5101358;28;20600;-67
2022/04/04 06:08:22;;;;;;;3.60;3.30;;;13.10;60.60;;;;;;5101382;28;20020;-67
2022/04/04 06:10:48;;;;;;;4.22;3.42;;;13.10;60.60;;;;;;5101350;28;20016;-67
2022/04/04 06:13:16;;;;;;;3.60;3.08;;;13.10;60.60;;;;;;5101166;28;20027;-67
2022/04/04 06:15:42;;;;;;;3.42;3.03;;;13.10;60.60;;;;;;5101187;28;20023;-67
2022/04/04 06:18:09;;;;;;;4.53;3.53;;;13.20;60.70;;;;;;5101284;28;20012;-67
2022/04/04 06:20:35;;;;;;;3.08;2.72;;;13.20;60.60;;;;;;5101087;28;20012;-67
2022/04/04 06:23:01;;;;;;;3.53;3.05;;;13.20;60.50;;;;;;5101036;28;20028;-66
2022/04/04 06:25:27;;;;;;;4.00;3.20;;;13.20;60.50;;;;;;5101059;28;20069;-67
2022/04/04 06:27:53;;;;;;;3.50;3.10;;;13.20;60.50;;;;;;5100956;28;20045;-67
2022/04/04 06:30:19;;;;;;;3.30;3.00;;;13.20;60.50;;;;;;5101026;28;20342;-67
2022/04/04 06:32:45;;;;;;;3.72;2.88;;;13.20;60.40;;;;;;5100806;28;20024;-67
2022/04/04 06:35:15;;;;;;;3.38;3.08;;;13.20;60.40;;;;;;5100946;28;20019;-66
2022/04/04 06:37:42;;;;;;;3.90;3.45;;;13.20;60.30;;;;;;5100767;28;20120;-67
2022/04/04 06:40:10;;;;;;;3.35;3.05;;;13.20;60.40;;;;;;5100863;28;20020;-66
2022/04/04 06:42:37;;;;;;;3.55;2.95;;;13.20;60.30;;;;;;5100755;28;20027;-66
2022/04/04 06:45:04;;;;;;;4.28;2.95;;;13.20;60.30;;;;;;5100507;28;20113;-66
2022/04/04 06:47:31;;;;;;;3.97;3.10;;;13.20;60.30;;;;;;5100672;28;20485;-67
2022/04/04 06:49:57;;;;;;;3.55;3.25;;;13.20;60.30;;;;;;5100685;28;20302;-66
2022/04/04 06:52:23;;;;;;;3.33;2.90;;;13.20;60.20;;;;;;5100503;28;20016;-67
2022/04/04 06:54:49;;;;;;;3.95;2.58;;;13.20;60.20;;;;;;5100548;28;20084;-67
2022/04/04 06:57:16;;;;;;;3.67;3.00;;;13.20;60.30;;;;;;5100524;28;20023;-66
2022/04/04 06:59:42;;;;;;;3.75;2.67;;;13.30;60.20;;;;;;5099891;28;20090;-66
2022/04/04 07:02:09;;;;;;;2.97;2.67;;;13.30;60.20;;;;;;5100458;28;20012;-66
2022/04/04 07:04:34;;;;;;;3.83;3.42;;;13.30;60.20;;;;;;5100362;28;20020;-66
2022/04/04 07:07:00;;;;;;;4.05;3.20;;;13.30;60.20;;;;;;5100325;28;20099;-67
2022/04/04 07:09:26;;;;;;;3.90;2.80;;;13.30;60.20;;;;;;5100286;28;20020;-66
2022/04/04 07:11:52;;;;;;;4.00;2.92;;;13.30;60.20;;;;;;5100258;28;20027;-67
2022/04/04 07:14:18;;;;;;;3.05;2.75;;;13.30;60.10;;;;;;5100242;28;20020;-67
2022/04/04 07:16:44;;;;;;;3.65;3.25;;;13.30;60.00;;;;;;5100148;28;20016;-66
2022/04/04 07:19:15;;;;;;;2.97;2.65;;;13.30;60.00;;;;;;5100151;28;20025;-66
2022/04/04 07:21:44;;;;;;;3.47;3.17;;;13.30;60.00;;;;;;5100186;28;20054;-67
2022/04/04 07:24:10;;;;;;;3.75;2.90;;;13.30;60.00;;;;;;5100209;28;20023;-66
2022/04/04 07:26:36;;;;;;;3.75;2.83;;;13.40;60.00;;;;;;5100278;28;20036;-66
2022/04/04 07:29:01;;;;;;;3.70;3.13;;;13.30;60.00;;;;;;5100303;28;20413;-67
2022/04/04 07:31:27;;;;;;;4.20;3.65;;;13.30;60.00;;;;;;5100006;28;20215;-67
2022/04/04 07:33:54;;;;;;;3.05;2.60;;;13.40;59.90;;;;;;5100141;28;20203;-67
2022/04/04 07:36:19;;;;;;;3.17;2.88;;;13.40;59.90;;;;;;5100074;28;20012;-67
2022/04/04 07:38:45;;;;;;;3.95;2.90;;;13.40;59.90;;;;;;5100487;28;20357;-66
2022/04/04 07:41:11;;;;;;;3.80;2.92;;;13.40;60.00;;;;;;5099983;28;20211;-66
2022/04/04 07:43:37;;;;;;;3.85;3.20;;;13.40;59.80;;;;;;5099783;28;20056;-66
2022/04/04 07:46:03;;;;;;;4.43;3.10;;;13.40;59.70;;;;;;5099864;28;20031;-67
2022/04/04 07:48:32;;;;;;;3.58;2.85;;;13.50;59.60;;;;;;5099934;28;20016;-66
2022/04/04 07:50:58;;;;;;;2.78;2.58;;;13.50;59.60;;;;;;5099895;28;20042;-66
2022/04/04 07:53:24;;;;;;;3.05;2.63;;;13.50;59.70;;;;;;5099663;28;20193;-66
2022/04/04 07:55:49;;;;;;;4.90;2.90;;;13.50;59.60;;;;;;5099762;28;20023;-66
2022/04/04 07:58:17;;;;;;;3.00;2.65;;;13.50;59.40;;;;;;5099843;28;20077;-66
2022/04/04 08:00:43;;;;;;;3.10;2.80;;;13.50;59.40;;;;;;5099692;28;20327;-66
2022/04/04 08:03:10;;;;;;;3.55;2.97;;;13.50;59.50;;;;;;5099827;28;20023;-66
2022/04/04 08:05:36;;;;;;;3.25;2.95;;;13.50;59.40;;;;;;5099931;28;20105;-67
2022/04/04 08:08:02;;;;;;;2.95;2.55;;;13.50;59.50;;;;;;5099596;28;20027;-66
2022/04/04 08:10:27;;;;;;;3.38;3.05;;;13.50;59.30;;;;;;5101089;28;20023;-67
2022/04/04 08:12:54;;;;;;;4.57;3.42;;;13.60;59.50;;;;;;5103612;28;20023;-66
2022/04/04 08:15:20;;;;;;;3.20;2.88;;;13.60;59.50;;;;;;5103719;28;20027;-67
2022/04/04 08:17:46;;;;;;;3.58;3.08;;;13.60;59.30;;;;;;5103578;28;20024;-66
2022/04/04 08:20:12;;;;;;;2.65;2.45;;;13.60;59.30;;;;;;5103454;28;20066;-67
2022/04/04 08:22:43;;;;;;;3.45;3.00;;;13.60;59.40;;;;;;5103626;28;20289;-66
2022/04/04 08:25:11;;;;;;;2.95;2.65;;;13.60;59.20;;;;;;5103567;28;20312;-67
2022/04/04 08:27:36;;;;;;;3.08;2.78;;;13.60;59.30;;;;;;5103451;28;20091;-67
2022/04/04 08:30:05;;;;;;;3.63;2.92;;;13.60;59.30;;;;;;5103372;28;20016;-67
2022/04/04 08:32:33;;;;;;;3.63;3.20;;;13.70;59.30;;;;;;5103288;28;20028;-67
2022/04/04 08:34:59;;;;;;;3.60;2.85;;;13.60;59.20;;;;;;5103210;28;20020;-67
2022/04/04 08:37:25;;;;;;;3.28;2.90;;;13.60;59.30;;;;;;5103233;28;20012;-67
2022/04/04 08:39:50;;;;;;;3.45;2.80;;;13.70;59.30;;;;;;5103138;28;20083;-67
2022/04/04 08:42:20;;;;;;;3.38;2.97;;;13.70;59.00;;;;;;5103185;28;20351;-66
2022/04/04 08:44:48;;;;;;;3.03;2.72;;;13.70;59.20;;;;;;5102973;28;20055;-66
2022/04/04 08:47:18;;;;;;;3.93;3.17;;;13.70;59.00;;;;;;5103071;28;20308;-66
2022/04/04 08:49:44;;;;;;;2.97;2.67;;;13.70;59.10;;;;;;5102919;28;20087;-66
2022/04/04 08:52:10;;;;;;;3.95;3.30;;;13.70;59.30;;;;;;5102962;28;20044;-66
2022/04/04 08:54:35;;;;;;;3.10;2.80;;;13.70;59.20;;;;;;5102842;28;20070;-67
2022/04/04 08:57:01;;;;;;;3.13;2.33;;;13.70;59.10;;;;;;5102801;28;20023;-67
2022/04/04 08:59:27;;;;;;;3.78;3.10;;;13.70;59.10;;;;;;5101511;28;20039;-66
2022/04/04 09:01:54;;;;;;;2.78;2.58;;;13.70;59.20;;;;;;5102603;28;20019;-67
2022/04/04 09:04:22;;;;;;;2.90;2.60;;;13.80;59.20;;;;;;5102799;28;20020;-67
2022/04/04 09:06:57;;;;;;;3.22;2.85;;;13.70;59.20;;;;;;5102735;28;20379;-66
2022/04/04 09:09:46;;;;;;;4.32;3.00;;;13.80;59.20;;;;;;5102581;28;20020;-66
2022/04/04 09:12:14;;;;;;;2.72;2.47;;;13.80;59.20;;;;;;5102226;28;20055;-67
2022/04/04 09:14:45;;;;;;;2.70;2.50;;;13.80;58.90;;;;;;5102517;28;20028;-67
2022/04/04 09:17:12;;;;;;;2.85;2.53;;;13.80;59.10;;;;;;5102468;28;20040;-67
2022/04/04 09:19:39;;;;;;;3.17;2.53;;;13.80;59.10;;;;;;5102534;28;20343;-66
2022/04/04 09:22:08;;;;;;;2.90;2.60;;;13.80;59.10;;;;;;5101710;28;20027;-67
2022/04/04 09:24:55;;;;;;;2.50;2.30;;;13.80;59.00;;;;;;5102409;28;20027;-66
2022/04/04 09:27:27;;;;;;;2.90;2.63;;;13.90;59.00;;;;;;5102319;28;20039;-66
2022/04/04 09:29:59;;;;;;;2.92;2.63;;;13.90;58.90;;;;;;5102257;28;20338;-68
2022/04/04 09:32:39;;;;;;;2.97;2.38;;;13.90;58.80;;;;;;5102165;28;20024;-66
2022/04/04 09:35:13;;;;;;;2.60;2.40;;;13.90;58.80;;;;;;5102214;28;20028;-67
2022/04/04 09:37:41;;;;;;;3.03;2.60;;;13.90;58.60;;;;;;5102112;28;20039;-67
2022/04/04 09:40:16;;;;;;;3.85;3.13;;;14.00;58.50;;;;;;5102084;28;20016;-67
2022/04/04 09:42:53;;;;;;;2.95;2.65;;;14.00;58.30;;;;;;5101944;28;20087;-67
2022/04/04 09:45:28;;;;;;;2.97;2.65;;;14.00;58.40;;;;;;5101838;28;20223;-67
2022/04/04 09:48:08;;;;;;;2.90;2.60;;;14.10;58.10;;;;;;5101918;28;20092;-67
2022/04/04 09:50:41;;;;;;;2.78;2.58;;;14.10;58.10;;;;;;5101860;28;20023;-67
2022/04/04 09:53:09;;;;;;;3.25;2.95;;;14.10;58.10;;;;;;5101783;28;20044;-67
2022/04/04 09:55:43;;;;;;;3.67;2.90;;;14.10;58.30;;;;;;5101756;28;20059;-66
2022/04/04 09:58:15;;;;;;;2.97;2.65;;;14.20;58.00;;;;;;5101797;28;20397;-67
2022/04/04 10:00:42;;;;;;;3.17;2.88;;;14.30;57.40;;;;;;5101685;28;20047;-67
2022/04/04 10:03:12;;;;;;;3.35;2.50;;;14.30;57.10;;;;;;5101598;28;20205;-66
2022/04/04 10:05:41;;;;;;;3.10;2.58;;;14.40;57.30;;;;;;5101629;28;20012;-66
2022/04/04 10:08:08;;;;;;;3.67;2.55;;;14.40;57.30;;;;;;5100176;28;20032;-67
2022/04/04 10:10:34;;;;;;;3.40;2.63;;;14.40;57.40;;;;;;5101400;28;20042;-66
2022/04/04 10:13:00;;;;;;;2.90;2.70;;;14.40;57.20;;;;;;5101369;28;20040;-66
2022/04/04 10:15:27;;;;;;;2.55;2.35;;;14.40;57.20;;;;;;5101338;28;20020;-66
2022/04/04 10:17:54;;;;;;;2.83;2.53;;;14.40;57.10;;;;;;5101123;28;20130;-67
2022/04/04 10:20:20;;;;;;;2.70;2.50;;;14.40;57.00;;;;;;5101330;28;20611;-67
2022/04/04 10:22:49;;;;;;;2.72;2.35;;;14.50;57.00;;;;;;5101260;28;20028;-67
2022/04/04 10:25:16;;;;;;;;;;;14.50;57.10;;;;;;5101611;28;20024;-67
2022/04/04 10:27:46;;;;;;;3.10;2.60;;;14.50;57.10;;;;;;5101177;28;19977;-66
2022/04/04 10:30:13;;;;;;;3.28;2.67;;;14.50;57.00;;;;;;5101039;28;20080;-67
2022/04/04 10:32:55;;;;;;;2.47;2.28;;;14.50;56.80;;;;;;5101009;28;20012;-67
2022/04/04 10:35:25;;;;;;;2.60;2.30;;;14.50;56.90;;;;;;5100195;28;20211;-67
2022/04/04 10:37:51;;;;;;;3.22;2.50;;;14.50;56.70;;;;;;5100908;28;20024;-67
2022/04/04 10:40:20;;;;;;;3.25;2.95;;;14.50;56.70;;;;;;5100954;28;20016;-66
2022/04/04 10:42:46;;;;;;;3.00;2.70;;;14.50;56.90;;;;;;5100774;28;20028;-66
2022/04/04 10:45:13;;;;;;;2.47;2.28;;;14.50;56.90;;;;;;5100584;28;20047;-66
2022/04/04 10:47:44;;;;;;;2.92;2.50;;;14.50;56.90;;;;;;5100783;28;20184;-66
2022/04/04 10:50:33;;;;;;;2.50;2.00;;;14.50;57.00;;;;;;5100780;28;20023;-67
2022/04/04 10:53:01;;;;;;;2.40;2.20;;;14.50;56.60;;;;;;5100630;28;20461;-67
2022/04/04 10:55:27;;;;;;;3.38;2.53;;;14.50;56.80;;;;;;5100636;28;20032;-67
2022/04/04 10:58:13;;;;;;;3.00;2.65;;;14.50;57.20;;;;;;5100435;28;20012;-67
2022/04/04 11:01:15;;;;;;;3.17;2.88;;;14.50;56.90;;;;;;5100085;28;20024;-66
2022/04/04 11:04:00;;;;;;;2.78;2.53;;;14.50;56.90;;;;;;5100497;28;20028;-67
2022/04/04 11:09:46;;;;;;;3.45;3.15;;;14.50;57.70;;;;;;5100369;28;20031;-67
2022/04/04 11:12:13;;;;;;;3.05;2.72;;;14.50;56.50;;;;;;5100306;28;20024;-67
2022/04/04 11:14:41;;;;;;;2.30;2.10;;;14.50;56.80;;;;;;5100314;28;20008;-67
2022/04/04 11:17:23;;;;;;;3.27;2.40;;;14.50;56.90;;;;;;5100406;28;20319;-66
2022/04/04 11:19:50;;;;;;;2.50;2.30;;;14.50;56.90;;;;;;5100359;28;20023;-67
2022/04/04 11:22:41;;;;;;;2.70;2.50;;;14.50;56.70;;;;;;5100221;28;20046;-66
2022/04/04 11:25:12;;;;;;;3.05;2.75;;;14.50;56.70;;;;;;5100204;28;20024;-67
2022/04/04 11:27:40;;;;;;;2.80;2.60;;;14.50;56.90;;;;;;5100240;28;20019;-66
2022/04/04 11:30:07;;;;;;;2.40;2.17;;;14.50;56.90;;;;;;5100080;28;20016;-66
2022/04/04 11:32:34;;;;;;;3.08;2.60;;;14.50;57.10;;;;;;5099979;28;20069;-67
2022/04/04 11:35:23;;;;;;;2.65;2.35;;;14.50;56.90;;;;;;5099979;28;20036;-68
2022/04/04 11:37:52;;;;;;;5.03;2.58;;;14.50;56.50;;;;;;5100026;28;20208;-67
2022/04/04 11:40:29;;;;;;;2.50;2.30;;;14.50;56.40;;;;;;5100043;28;20238;-66
2022/04/04 11:42:57;;;;;;;2.20;2.00;;;14.50;57.20;;;;;;5099904;28;20035;-67
2022/04/04 11:45:27;;;;;;;3.10;2.70;;;14.50;57.20;;;;;;5099492;28;20051;-67
2022/04/04 11:47:53;;;;;;;2.47;2.28;;;14.50;56.60;;;;;;5099846;28;20019;-66
2022/04/04 11:50:22;;;;;;;3.00;2.65;;;14.50;57.10;;;;;;5099947;28;20069;-66
2022/04/04 11:52:50;;;;;;;2.97;2.38;;;14.50;56.60;;;;;;5099908;28;20016;-66
2022/04/04 11:55:18;;;;;;;2.30;2.10;;;14.50;57.10;;;;;;5099834;28;20024;-66
2022/04/04 11:57:46;;;;;;;2.60;2.40;;;14.50;57.10;;;;;;5099758;28;20075;-66
2022/04/04 12:00:22;;;;;;;2.53;2.33;;;14.50;57.10;;;;;;5099767;28;20082;-68
2022/04/04 12:02:49;;;;;;;3.00;2.47;;;14.50;56.80;;;;;;5099865;28;20024;-66
2022/04/04 12:05:17;;;;;;;3.28;2.42;;;14.50;56.90;;;;;;5099730;28;20015;-67
2022/04/04 12:07:43;;;;;;;2.67;2.47;;;14.50;56.70;;;;;;5099689;28;20110;-67
2022/04/04 12:10:11;;;;;;;2.85;2.55;;;14.50;56.50;;;;;;5099768;28;20020;-66
2022/04/04 12:12:37;;;;;;;2.42;2.08;;;14.50;56.60;;;;;;5099711;28;20024;-67
2022/04/04 12:15:03;;;;;;;2.50;2.30;;;14.50;56.50;;;;;;5099561;28;20051;-67
2022/04/04 12:17:28;;;;;;;2.42;2.15;;;14.60;56.40;;;;;;5099697;28;20257;-66
2022/04/04 12:19:54;;;;;;;2.75;2.30;;;14.60;56.50;;;;;;5099577;28;20020;-66
2022/04/04 12:25:10;;;;;;;2.72;2.53;;;14.60;56.40;;;;;;5099584;28;20030;-66
2022/04/04 12:27:58;;;;;;;3.03;2.35;;;14.60;56.20;;;;;;5099573;28;20032;-67
2022/04/04 12:30:33;;;;;;;2.92;2.63;;;14.60;56.30;;;;;;5098258;28;20050;-67
2022/04/04 12:33:13;;;;;;;2.60;2.40;;;14.60;57.40;;;;;;5099507;28;20027;-66
2022/04/04 12:35:44;;;;;;;2.40;2.20;;;14.60;56.70;;;;;;5099562;28;20058;-66
2022/04/04 12:38:10;;;;;;;3.03;2.13;;;14.60;56.10;;;;;;5099582;28;20009;-67
2022/04/04 12:40:40;;;;;;;3.03;2.20;;;14.60;56.60;;;;;;5099449;28;20331;-65
2022/04/04 12:43:08;;;;;;;2.63;2.35;;;14.60;56.20;;;;;;5099430;28;20087;-68
2022/04/04 12:45:34;;;;;;;3.07;2.40;;;14.70;56.80;;;;;;5099301;28;20062;-66
2022/04/04 12:48:07;;;;;;;2.70;2.38;;;14.70;56.60;;;;;;5099347;28;20091;-67
2022/04/04 12:50:46;;;;;;;3.05;2.25;;;14.70;56.60;;;;;;5099338;28;20026;-67
2022/04/04 12:53:13;;;;;;;2.38;2.17;;;14.70;56.20;;;;;;5099305;28;20428;-67
2022/04/04 12:55:40;;;;;;;2.65;2.35;;;14.70;56.50;;;;;;5099234;28;20034;-66
2022/04/04 12:58:23;;;;;;;2.60;2.30;;;14.70;56.40;;;;;;5101486;28;20043;-67
2022/04/04 13:00:55;;;;;;;3.15;2.67;;;14.70;56.40;;;;;;5103030;28;20016;-66